createdAt,value
2022-08-21T00:00:14.037Z,24.30
2022-08-21T00:02:55.773Z,24.10
2022-08-21T00:05:24.203Z,24.20
2022-08-21T00:07:51.401Z,24.30
2022-08-21T00:10:19.236Z,24.20
2022-08-21T00:12:46.682Z,24.00
2022-08-21T00:15:18.579Z,24.00
2022-08-21T00:17:45.523Z,24.00
2022-08-21T00:20:15.285Z,24.00
2022-08-21T00:22:43.020Z,24.20
2022-08-21T00:25:11.041Z,24.20
2022-08-21T00:27:38.220Z,24.30
2022-08-21T00:30:07.504Z,24.20
2022-08-21T00:32:34.790Z,24.30
2022-08-21T00:35:01.679Z,24.40
2022-08-21T00:37:28.605Z,24.40
2022-08-21T00:39:57.936Z,24.50
2022-08-21T00:42:25.131Z,24.50
2022-08-21T00:44:52.192Z,24.60
2022-08-21T00:47:20.315Z,24.60
2022-08-21T00:49:47.544Z,24.60
2022-08-21T00:52:20.107Z,24.60
2022-08-21T00:54:48.109Z,24.50
2022-08-21T00:57:24.878Z,24.40
2022-08-21T00:59:54.661Z,24.20
2022-08-21T01:02:21.628Z,24.20
2022-08-21T01:04:48.729Z,24.20
2022-08-21T01:07:16.528Z,24.30
2022-08-21T01:09:44.207Z,24.30
2022-08-21T01:12:12.598Z,24.40
2022-08-21T01:14:41.389Z,24.30
2022-08-21T01:17:09.027Z,24.30
2022-08-21T01:19:35.971Z,24.30
2022-08-21T01:22:03.268Z,24.40
2022-08-21T01:24:32.473Z,24.30
2022-08-21T01:27:01.137Z,24.30
2022-08-21T01:29:40.562Z,24.10
2022-08-21T01:32:12.502Z,24.10
2022-08-21T01:34:42.153Z,24.20
2022-08-21T01:37:10.049Z,24.20
2022-08-21T01:39:38.216Z,24.30
2022-08-21T01:42:05.885Z,24.30
2022-08-21T01:44:33.354Z,24.30
2022-08-21T01:47:02.583Z,24.10
2022-08-21T01:49:29.497Z,24.20
2022-08-21T01:51:56.492Z,24.20
2022-08-21T01:54:23.534Z,24.30
2022-08-21T01:56:53.057Z,24.20
2022-08-21T01:59:21.487Z,24.00
2022-08-21T02:01:48.387Z,23.90
2022-08-21T02:04:15.332Z,23.80
2022-08-21T02:06:43.047Z,23.60
2022-08-21T02:09:12.024Z,23.50
2022-08-21T02:11:42.245Z,23.60
2022-08-21T02:14:13.868Z,23.70
2022-08-21T02:16:42.424Z,23.80
2022-08-21T02:19:10.121Z,23.80
2022-08-21T02:21:36.950Z,23.80
2022-08-21T02:24:04.347Z,23.80
2022-08-21T02:26:31.376Z,23.70
2022-08-21T02:28:58.297Z,23.70
2022-08-21T02:31:25.603Z,23.60
2022-08-21T02:33:52.656Z,23.70
2022-08-21T02:36:19.896Z,23.70
2022-08-21T02:38:46.984Z,23.70
2022-08-21T02:41:17.856Z,23.70
2022-08-21T02:43:45.140Z,23.50
2022-08-21T02:46:14.509Z,23.40
2022-08-21T02:48:41.990Z,23.40
2022-08-21T02:51:17.273Z,23.00
2022-08-21T02:53:44.828Z,23.10
2022-08-21T02:56:14.783Z,23.20
2022-08-21T02:58:48.902Z,23.10
2022-08-21T03:01:16.947Z,23.10
2022-08-21T03:03:46.203Z,23.20
2022-08-21T03:06:16.059Z,23.20
2022-08-21T03:08:45.725Z,23.20
2022-08-21T03:11:14.248Z,23.30
2022-08-21T03:13:42.841Z,23.30
2022-08-21T03:16:10.654Z,23.30
2022-08-21T03:18:38.201Z,23.40
2022-08-21T03:21:07.632Z,23.40
2022-08-21T03:23:34.546Z,23.20
2022-08-21T03:26:01.454Z,23.20
2022-08-21T03:28:28.888Z,23.20
2022-08-21T03:30:56.293Z,23.10
2022-08-21T03:33:23.734Z,23.20
2022-08-21T03:36:09.947Z,23.10
2022-08-21T03:38:38.326Z,23.00
2022-08-21T03:41:06.772Z,23.10
2022-08-21T03:43:35.184Z,23.20
2022-08-21T03:46:04.330Z,23.20
2022-08-21T03:48:31.656Z,23.20
2022-08-21T03:50:58.741Z,23.20
2022-08-21T03:53:26.180Z,23.00
2022-08-21T03:55:54.249Z,22.80
2022-08-21T03:58:25.407Z,22.70
2022-08-21T04:00:55.080Z,22.70
2022-08-21T04:03:22.601Z,22.70
2022-08-21T04:05:49.523Z,22.80
2022-08-21T04:08:19.602Z,22.90
2022-08-21T04:10:49.440Z,23.00
2022-08-21T04:13:16.576Z,23.00
2022-08-21T04:15:43.697Z,22.90
2022-08-21T04:18:11.364Z,22.90
2022-08-21T04:20:39.351Z,22.90
2022-08-21T04:23:06.450Z,23.00
2022-08-21T04:25:33.501Z,23.00
2022-08-21T04:28:00.500Z,22.90
2022-08-21T04:30:28.192Z,22.70
2022-08-21T04:32:58.084Z,22.70
2022-08-21T04:35:27.247Z,22.50
2022-08-21T04:37:54.185Z,22.50
2022-08-21T04:40:22.966Z,22.50
2022-08-21T04:43:11.772Z,22.50
2022-08-21T04:45:42.844Z,22.60
2022-08-21T04:48:14.052Z,22.70
2022-08-21T04:50:44.026Z,22.80
2022-08-21T04:53:29.659Z,22.90
2022-08-21T04:55:57.414Z,22.90
2022-08-21T04:58:27.321Z,23.00
2022-08-21T05:00:56.980Z,23.00
2022-08-21T05:03:24.288Z,23.00
2022-08-21T05:05:51.411Z,23.20
2022-08-21T05:08:22.384Z,23.20
2022-08-21T05:10:49.296Z,23.20
2022-08-21T05:13:17.097Z,23.20
2022-08-21T05:15:43.989Z,23.10
2022-08-21T05:18:11.272Z,23.30
2022-08-21T05:20:38.307Z,23.70
2022-08-21T05:23:13.537Z,24.30
2022-08-21T05:25:41.128Z,24.70
2022-08-21T05:28:08.767Z,25.20
2022-08-21T05:30:37.214Z,25.50
2022-08-21T05:33:06.948Z,25.80
2022-08-21T05:35:34.500Z,26.00
2022-08-21T05:38:01.731Z,26.10
2022-08-21T05:40:28.833Z,26.10
2022-08-21T05:42:56.844Z,26.30
2022-08-21T05:45:41.342Z,26.40
2022-08-21T05:48:24.788Z,26.60
2022-08-21T05:50:53.443Z,26.80
2022-08-21T05:53:23.168Z,26.90
2022-08-21T05:55:51.041Z,27.00
2022-08-21T05:58:23.715Z,27.10
2022-08-21T06:00:51.875Z,27.20
2022-08-21T06:03:22.941Z,27.20
2022-08-21T06:05:49.936Z,27.20
2022-08-21T06:08:18.069Z,27.30
2022-08-21T06:10:46.098Z,27.50
2022-08-21T06:13:13.760Z,27.60
2022-08-21T06:15:41.037Z,27.80
2022-08-21T06:18:08.480Z,28.00
2022-08-21T06:20:35.523Z,28.10
2022-08-21T06:23:02.932Z,28.20
2022-08-21T06:25:30.377Z,28.30
2022-08-21T06:28:08.892Z,28.50
2022-08-21T06:30:37.122Z,28.70
2022-08-21T06:33:04.520Z,28.80
2022-08-21T06:35:31.435Z,29.00
2022-08-21T06:37:58.630Z,29.00
2022-08-21T06:40:27.515Z,29.10
2022-08-21T06:42:59.376Z,29.30
2022-08-21T06:45:31.702Z,29.30
2022-08-21T06:47:59.500Z,29.30
2022-08-21T06:50:26.424Z,29.30
2022-08-21T06:53:05.507Z,29.40
2022-08-21T06:55:33.095Z,29.50
2022-08-21T06:58:00.359Z,29.50
2022-08-21T07:00:27.582Z,29.50
2022-08-21T07:02:54.567Z,29.30
2022-08-21T07:05:21.700Z,29.30
2022-08-21T07:07:49.188Z,29.40
2022-08-21T07:10:21.978Z,29.50
2022-08-21T07:12:50.714Z,29.50
2022-08-21T07:15:18.329Z,29.60
2022-08-21T07:17:45.336Z,29.70
2022-08-21T07:20:12.489Z,29.70
2022-08-21T07:22:41.764Z,29.70
2022-08-21T07:25:09.578Z,29.80
2022-08-21T07:27:36.647Z,29.90
2022-08-21T07:30:04.918Z,29.90
2022-08-21T07:32:31.800Z,29.90
2022-08-21T07:34:58.705Z,29.90
2022-08-21T07:37:25.610Z,30.00
2022-08-21T07:39:52.911Z,30.00
2022-08-21T07:42:19.884Z,30.00
2022-08-21T07:44:46.848Z,30.00
2022-08-21T07:47:16.409Z,30.00
2022-08-21T07:50:04.462Z,30.00
2022-08-21T07:52:32.085Z,30.10
2022-08-21T07:55:04.131Z,30.10
2022-08-21T07:57:33.133Z,30.00
2022-08-21T08:00:00.084Z,30.00
2022-08-21T08:02:31.617Z,30.00
2022-08-21T08:05:04.588Z,30.00
2022-08-21T08:07:31.676Z,30.10
2022-08-21T08:09:59.368Z,30.00
2022-08-21T08:12:30.331Z,30.10
2022-08-21T08:14:58.861Z,30.10
2022-08-21T08:17:26.113Z,30.00
2022-08-21T08:19:53.472Z,30.10
2022-08-21T08:22:24.701Z,29.90
2022-08-21T08:24:53.368Z,29.80
2022-08-21T08:27:21.168Z,29.80
2022-08-21T08:29:48.514Z,29.70
2022-08-21T08:32:16.003Z,29.60
2022-08-21T08:34:42.952Z,29.60
2022-08-21T08:37:11.175Z,29.60
2022-08-21T08:39:39.075Z,29.60
2022-08-21T08:42:32.606Z,29.60
2022-08-21T08:45:11.611Z,29.50
2022-08-21T08:47:43.107Z,29.50
2022-08-21T08:50:38.172Z,29.50
2022-08-21T08:53:11.879Z,29.50
2022-08-21T08:55:41.667Z,29.50
2022-08-21T08:58:17.980Z,29.40
2022-08-21T09:00:48.294Z,29.40
2022-08-21T09:03:16.922Z,29.50
2022-08-21T09:05:56.490Z,29.50
2022-08-21T09:08:55.393Z,29.40
2022-08-21T09:11:38.132Z,29.50
2022-08-21T09:14:25.281Z,29.40
2022-08-21T09:17:30.013Z,29.50
2022-08-21T09:20:06.953Z,29.50
2022-08-21T09:22:52.307Z,29.50
2022-08-21T09:25:26.625Z,29.50
2022-08-21T09:27:53.907Z,29.50
2022-08-21T09:30:26.954Z,29.60
2022-08-21T09:32:53.861Z,29.60
2022-08-21T09:35:23.640Z,29.60
2022-08-21T09:38:03.069Z,29.60
2022-08-21T09:40:44.466Z,29.60
2022-08-21T09:43:24.036Z,29.60
2022-08-21T09:46:06.848Z,29.60
2022-08-21T09:48:48.238Z,29.60
2022-08-21T09:51:27.037Z,29.60
2022-08-21T09:53:58.899Z,29.60
2022-08-21T09:56:49.230Z,29.70
2022-08-21T09:59:20.020Z,29.70
2022-08-21T10:01:50.247Z,29.70
2022-08-21T10:04:22.596Z,29.70
2022-08-21T10:06:49.728Z,29.70
2022-08-21T10:09:21.757Z,29.70
2022-08-21T10:12:18.177Z,29.70
2022-08-21T10:14:50.899Z,29.80
2022-08-21T10:17:32.669Z,29.80
2022-08-21T10:20:07.864Z,29.80
2022-08-21T10:22:48.123Z,29.80
2022-08-21T10:25:27.136Z,29.70
2022-08-21T10:28:19.117Z,29.80
2022-08-21T10:31:04.113Z,29.90
2022-08-21T10:33:45.741Z,29.90
2022-08-21T10:36:32.433Z,30.00
2022-08-21T10:39:35.959Z,30.10
2022-08-21T10:42:28.541Z,30.10
2022-08-21T10:45:27.255Z,30.10
2022-08-21T10:48:08.977Z,30.10
2022-08-21T10:51:01.044Z,30.10
2022-08-21T10:53:51.604Z,30.10
2022-08-21T10:56:23.048Z,30.20
2022-08-21T10:59:24.620Z,30.10
2022-08-21T11:02:11.143Z,30.10
2022-08-21T11:04:57.735Z,30.10
2022-08-21T11:07:36.329Z,30.20
2022-08-21T11:10:13.739Z,30.20
2022-08-21T11:13:00.330Z,30.20
2022-08-21T11:15:44.581Z,30.20
2022-08-21T11:18:40.023Z,30.20
2022-08-21T11:21:29.997Z,30.20
2022-08-21T11:24:05.747Z,30.30
2022-08-21T11:26:40.021Z,30.30
2022-08-21T11:29:25.509Z,30.30
2022-08-21T11:31:52.332Z,30.30
2022-08-21T11:34:43.707Z,30.30
2022-08-21T11:37:55.611Z,30.40
2022-08-21T11:40:49.295Z,30.40
2022-08-21T11:43:37.457Z,30.50
2022-08-21T11:46:21.364Z,30.50
2022-08-21T11:49:01.906Z,30.50
2022-08-21T11:51:47.757Z,30.50
2022-08-21T11:54:29.808Z,30.60
2022-08-21T11:57:06.440Z,30.60
2022-08-21T11:59:46.390Z,30.60
2022-08-21T12:02:16.978Z,30.60
2022-08-21T12:04:53.033Z,30.60
2022-08-21T12:07:37.197Z,30.60
2022-08-21T12:10:08.772Z,30.60
2022-08-21T12:12:38.551Z,30.60
2022-08-21T12:15:20.471Z,30.70
2022-08-21T12:17:58.178Z,30.60
2022-08-21T12:20:31.120Z,30.60
2022-08-21T12:23:13.174Z,30.60
2022-08-21T12:25:44.034Z,30.70
2022-08-21T12:28:14.444Z,30.70
2022-08-21T12:30:44.589Z,30.80
2022-08-21T12:33:36.203Z,30.80
2022-08-21T12:36:22.217Z,30.80
2022-08-21T12:39:03.508Z,30.80
2022-08-21T12:41:35.386Z,30.80
2022-08-21T12:44:10.079Z,30.80
2022-08-21T12:46:53.002Z,30.80
2022-08-21T12:49:33.042Z,30.90
2022-08-21T12:52:22.333Z,30.90
2022-08-21T12:54:49.404Z,30.90
2022-08-21T12:57:29.055Z,31.00
2022-08-21T13:00:02.325Z,31.00
2022-08-21T13:02:37.853Z,31.00
2022-08-21T13:05:07.960Z,31.00
2022-08-21T13:07:37.956Z,31.00
2022-08-21T13:10:15.132Z,31.10
2022-08-21T13:12:43.507Z,31.10
2022-08-21T13:15:11.019Z,31.20
2022-08-21T13:17:42.747Z,31.20
2022-08-21T13:20:20.188Z,31.20
2022-08-21T13:22:47.443Z,31.20
2022-08-21T13:25:17.101Z,31.30
2022-08-21T13:27:57.447Z,31.30
2022-08-21T13:30:24.593Z,31.30
2022-08-21T13:33:03.082Z,31.20
2022-08-21T13:35:50.927Z,31.10
2022-08-21T13:38:27.200Z,31.20
2022-08-21T13:40:58.912Z,31.20
2022-08-21T13:43:33.581Z,31.20
2022-08-21T13:46:02.472Z,31.30
2022-08-21T13:48:34.036Z,31.30
2022-08-21T13:51:01.811Z,31.40
2022-08-21T13:53:47.845Z,31.40
2022-08-21T13:56:33.791Z,31.40
2022-08-21T13:59:02.714Z,31.30
2022-08-21T14:01:50.404Z,31.30
2022-08-21T14:04:25.485Z,31.30
2022-08-21T14:06:53.391Z,31.40
2022-08-21T14:09:31.938Z,31.40
2022-08-21T14:12:18.065Z,31.30
2022-08-21T14:14:50.479Z,31.30
2022-08-21T14:17:33.951Z,31.40
2022-08-21T14:20:01.840Z,31.30
2022-08-21T14:22:42.684Z,31.30
2022-08-21T14:25:20.053Z,31.30
2022-08-21T14:28:13.851Z,31.30
2022-08-21T14:30:44.951Z,31.30
2022-08-21T14:33:19.511Z,31.40
2022-08-21T14:35:47.297Z,31.40
2022-08-21T14:38:20.532Z,31.50
2022-08-21T14:40:51.740Z,31.50
2022-08-21T14:43:20.619Z,31.40
2022-08-21T14:45:48.250Z,31.50
2022-08-21T14:48:15.471Z,31.50
2022-08-21T14:50:42.496Z,31.50
2022-08-21T14:53:11.109Z,31.50
2022-08-21T14:55:58.597Z,31.50
2022-08-21T14:58:26.245Z,31.50
2022-08-21T15:00:54.775Z,31.40
2022-08-21T15:03:22.920Z,31.40
2022-08-21T15:05:50.866Z,31.40
2022-08-21T15:08:19.045Z,31.50
2022-08-21T15:11:10.113Z,31.50
2022-08-21T15:13:33.747Z,31.50
2022-08-21T15:16:00.959Z,31.50
2022-08-21T15:18:30.564Z,31.50
2022-08-21T15:20:58.456Z,31.50
2022-08-21T15:23:25.329Z,31.40
2022-08-21T15:25:54.264Z,31.40
2022-08-21T15:28:22.159Z,31.40
2022-08-21T15:30:49.654Z,31.40
2022-08-21T15:33:16.855Z,31.30
2022-08-21T15:35:43.933Z,31.30
2022-08-21T15:38:11.409Z,31.30
2022-08-21T15:40:40.088Z,31.40
2022-08-21T15:43:30.232Z,31.40
2022-08-21T15:45:59.825Z,31.40
2022-08-21T15:48:27.110Z,31.40
2022-08-21T15:50:53.993Z,31.50
2022-08-21T15:53:20.932Z,31.50
2022-08-21T15:55:47.818Z,31.40
2022-08-21T15:58:18.079Z,31.30
2022-08-21T16:00:45.908Z,31.40
2022-08-21T16:03:17.606Z,31.40
2022-08-21T16:05:45.871Z,31.30
2022-08-21T16:08:13.046Z,31.40
2022-08-21T16:10:41.188Z,31.30
2022-08-21T16:13:15.740Z,31.30
2022-08-21T16:15:42.881Z,31.20
2022-08-21T16:18:11.069Z,31.20
2022-08-21T16:20:38.302Z,31.20
2022-08-21T16:23:05.320Z,31.20
2022-08-21T16:25:37.979Z,31.30
2022-08-21T16:28:10.386Z,31.30
2022-08-21T16:30:39.949Z,31.30
2022-08-21T16:33:08.506Z,31.30
2022-08-21T16:35:35.385Z,31.30
2022-08-21T16:38:02.607Z,31.30
2022-08-21T16:40:29.767Z,31.30
2022-08-21T16:42:56.981Z,31.20
2022-08-21T16:45:23.976Z,31.20
2022-08-21T16:47:51.401Z,31.20
2022-08-21T16:50:22.667Z,31.20
2022-08-21T16:52:49.958Z,31.20
2022-08-21T16:55:17.092Z,31.20
2022-08-21T16:57:44.457Z,31.10
2022-08-21T17:00:13.294Z,31.10
2022-08-21T17:02:45.206Z,31.10
2022-08-21T17:05:14.038Z,31.10
2022-08-21T17:07:41.766Z,31.10
2022-08-21T17:10:12.221Z,31.10
2022-08-21T17:12:40.776Z,31.10
2022-08-21T17:15:21.330Z,31.00
2022-08-21T17:17:49.283Z,31.00
2022-08-21T17:20:16.811Z,31.00
2022-08-21T17:22:43.778Z,31.00
2022-08-21T17:25:10.801Z,31.00
2022-08-21T17:27:38.860Z,31.00
2022-08-21T17:30:07.548Z,30.90
2022-08-21T17:32:34.638Z,30.90
2022-08-21T17:48:28.155Z,30.80
2022-08-21T17:50:55.307Z,30.40
2022-08-21T17:53:22.412Z,30.30
2022-08-21T17:55:50.192Z,30.20
2022-08-21T17:58:17.361Z,30.10
2022-08-21T18:00:46.362Z,30.00
2022-08-21T18:03:19.467Z,29.90
2022-08-21T18:05:48.659Z,29.70
2022-08-21T18:08:15.941Z,29.60
2022-08-21T18:10:46.244Z,29.50
2022-08-21T18:13:17.277Z,29.50
2022-08-21T18:15:47.343Z,29.40
2022-08-21T18:18:14.247Z,29.40
2022-08-21T18:20:41.518Z,29.30
2022-08-21T18:23:08.600Z,29.10
2022-08-21T18:25:36.151Z,29.00
2022-08-21T18:28:06.742Z,28.90
2022-08-21T18:30:40.586Z,28.80
2022-08-21T18:33:09.400Z,28.80
2022-08-21T18:35:39.355Z,28.80
2022-08-21T18:38:06.897Z,28.80
2022-08-21T18:40:35.485Z,28.70
2022-08-21T18:43:06.511Z,28.70
2022-08-21T18:45:36.967Z,28.70
2022-08-21T18:48:08.961Z,28.50
2022-08-21T18:50:38.253Z,28.40
2022-08-21T18:53:24.203Z,28.10
2022-08-21T18:55:55.063Z,27.90
2022-08-21T18:58:25.516Z,27.90
2022-08-21T19:00:54.261Z,27.90
2022-08-21T19:03:26.069Z,27.80
2022-08-21T19:05:54.615Z,27.80
2022-08-21T19:08:28.682Z,27.70
2022-08-21T19:10:58.331Z,27.90
2022-08-21T19:13:28.379Z,28.00
2022-08-21T19:15:55.907Z,28.00
2022-08-21T19:18:27.917Z,27.90
2022-08-21T19:21:16.335Z,27.80
2022-08-21T19:23:44.525Z,27.60
2022-08-21T19:26:12.125Z,27.60
2022-08-21T19:28:47.416Z,27.60
2022-08-21T19:31:32.474Z,27.50
2022-08-21T19:34:05.455Z,27.50
2022-08-21T19:36:33.242Z,27.40
2022-08-21T19:39:00.747Z,27.30
2022-08-21T19:41:31.288Z,27.10
2022-08-21T19:44:01.895Z,27.20
2022-08-21T19:46:31.772Z,27.30
2022-08-21T19:49:00.509Z,27.40
2022-08-21T19:51:28.259Z,27.20
2022-08-21T19:53:57.197Z,27.00
2022-08-21T19:56:28.109Z,27.00
2022-08-21T19:58:55.803Z,26.90
2022-08-21T20:01:25.619Z,26.90
2022-08-21T20:03:54.703Z,27.00
2022-08-21T20:06:24.927Z,27.00
2022-08-21T20:08:54.711Z,27.10
2022-08-21T20:11:31.874Z,27.10
2022-08-21T20:14:00.687Z,27.10
2022-08-21T20:16:28.715Z,27.10
2022-08-21T20:18:55.916Z,27.10
2022-08-21T20:21:23.302Z,27.00
2022-08-21T20:23:50.180Z,27.10
2022-08-21T20:26:19.095Z,27.10
2022-08-21T20:28:46.538Z,27.10
2022-08-21T20:31:17.714Z,27.00
2022-08-21T20:33:47.004Z,27.00
2022-08-21T20:36:17.083Z,27.10
2022-08-21T20:38:44.634Z,27.10
2022-08-21T20:41:21.370Z,27.10
2022-08-21T20:43:58.808Z,27.20
2022-08-21T20:46:27.938Z,27.20
2022-08-21T20:48:55.467Z,27.20
2022-08-21T20:51:33.152Z,27.30
2022-08-21T20:54:09.777Z,27.30
2022-08-21T20:57:01.421Z,27.40
2022-08-21T20:59:34.671Z,27.30
2022-08-21T21:02:24.540Z,27.30
2022-08-21T21:05:05.409Z,27.20
2022-08-21T21:08:09.486Z,27.30
2022-08-21T21:10:42.797Z,27.30
2022-08-21T21:13:20.948Z,27.20
2022-08-21T21:15:52.245Z,27.10
2022-08-21T21:18:32.414Z,27.10
2022-08-21T21:21:09.323Z,27.10
2022-08-21T21:23:39.641Z,27.00
2022-08-21T21:26:29.236Z,27.00
2022-08-21T21:29:10.623Z,27.10
2022-08-21T21:31:37.895Z,27.10
2022-08-21T21:34:04.811Z,27.10
2022-08-21T21:36:56.290Z,26.90
2022-08-21T21:39:45.142Z,26.80
2022-08-21T21:42:17.576Z,26.70
2022-08-21T21:45:03.022Z,26.70
2022-08-21T21:48:07.039Z,26.70
2022-08-21T21:50:44.124Z,26.80
2022-08-21T21:53:40.023Z,26.70
2022-08-21T21:56:27.639Z,26.50
2022-08-21T21:59:23.799Z,26.40
2022-08-21T22:02:02.281Z,26.20
2022-08-21T22:04:34.836Z,26.30
2022-08-21T22:07:13.881Z,26.30
2022-08-21T22:09:59.983Z,26.30
2022-08-21T22:12:49.700Z,26.30
2022-08-21T22:15:26.449Z,26.10
2022-08-21T22:18:28.586Z,26.00
2022-08-21T22:21:14.557Z,25.90
2022-08-21T22:23:46.428Z,25.90
2022-08-21T22:26:20.282Z,26.00
2022-08-21T22:28:51.544Z,26.10
2022-08-21T22:31:27.806Z,26.10
2022-08-21T22:34:06.484Z,26.10
2022-08-21T22:36:44.868Z,26.10
2022-08-21T22:39:34.433Z,26.20
2022-08-21T22:42:10.882Z,26.10
2022-08-21T22:45:00.506Z,26.20
2022-08-21T22:47:41.508Z,26.30
2022-08-21T22:50:18.765Z,26.30
2022-08-21T22:52:50.229Z,26.30
2022-08-21T22:55:26.415Z,26.20
2022-08-21T22:58:12.121Z,26.30
2022-08-21T23:00:45.078Z,26.30
2022-08-21T23:03:23.191Z,26.20
2022-08-21T23:05:50.349Z,26.20
2022-08-21T23:08:37.357Z,26.20
2022-08-21T23:11:25.586Z,26.10
2022-08-21T23:13:56.120Z,26.10
2022-08-21T23:16:28.575Z,26.10
2022-08-21T23:18:58.154Z,26.10
2022-08-21T23:21:52.787Z,26.10
2022-08-21T23:24:46.658Z,26.20
2022-08-21T23:27:35.958Z,26.10
2022-08-21T23:30:12.342Z,26.20
2022-08-21T23:33:01.954Z,26.20
2022-08-21T23:36:04.237Z,26.20
2022-08-21T23:38:51.250Z,26.20
2022-08-21T23:41:34.107Z,26.20
2022-08-21T23:44:27.262Z,26.10
2022-08-21T23:47:12.940Z,26.00
2022-08-21T23:49:57.580Z,26.00
2022-08-21T23:52:25.844Z,25.90
2022-08-21T23:55:39.821Z,25.90
2022-08-21T23:58:18.835Z,25.90
